Time;durP1;ratioP1;P1;durP2;ratioP2;P2;SDS_P1;SDS_P2;PMS_P1;PMS_P2;Temp;Humidity;BMP_temperature;BMP_pressure;BME280_temperature;BME280_humidity;BME280_pressure;Samples;Min_cycle;Max_cycle;Signal;HPM_P1;HPM_P2
2022/12/18 00:01:05;;;;;;;78.70;21.40;;;;;;;;;;5015674;28;20114;-68
2022/12/18 00:03:33;;;;;;;41.47;15.32;;;;;;;;;;5000008;28;20038;-68
2022/12/18 00:05:58;;;;;;;75.22;21.70;;;;;;;;;;4998664;28;20268;-69
2022/12/18 00:08:24;;;;;;;86.40;22.55;;;;;;;;;;5000623;28;20574;-67
2022/12/18 00:10:49;;;;;;;54.22;19.85;;;;;;;;;;5000484;28;20522;-69
2022/12/18 00:13:15;;;;;;;61.30;23.30;;;;;;;;;;5000197;28;20075;-68
2022/12/18 00:15:40;;;;;;;81.55;23.63;;;;;;;;;;4999023;28;20112;-68
2022/12/18 00:18:06;;;;;;;86.20;22.10;;;;;;;;;;4999009;28;20141;-67
2022/12/18 00:20:36;;;;;;;80.80;23.95;;;;;;;;;;5000315;28;20065;-67
2022/12/18 00:23:01;;;;;;;75.60;23.77;;;;;;;;;;4999675;28;20069;-68
2022/12/18 00:25:27;;;;;;;77.90;26.70;;;;;;;;;;4999867;28;20088;-67
2022/12/18 00:27:52;;;;;;;93.18;26.92;;;;;;;;;;4998286;28;20069;-65
2022/12/18 00:30:18;;;;;;;93.28;27.58;;;;;;;;;;5015048;28;20131;-68
2022/12/18 00:32:44;;;;;;;77.40;24.40;;;;;;;;;;5000243;28;20503;-68
2022/12/18 00:35:09;;;;;;;78.18;21.23;;;;;;;;;;5001395;28;20593;-68
2022/12/18 00:37:34;;;;;;;86.78;22.08;;;;;;;;;;5019211;28;20050;-68
2022/12/18 00:40:00;;;;;;;77.85;22.98;;;;;;;;;;5016878;28;20050;-67
2022/12/18 00:45:28;;;;;;;56.88;20.92;;;;;;;;;;5000391;28;20045;-65
2022/12/18 00:47:54;;;;;;;80.72;24.02;;;;;;;;;;5003761;28;20584;-68
2022/12/18 00:50:19;;;;;;;53.42;16.83;;;;;;;;;;5002136;28;20128;-66
2022/12/18 00:52:45;;;;;;;66.60;19.40;;;;;;;;;;5003816;28;20042;-70
2022/12/18 00:55:11;;;;;;;70.18;21.20;;;;;;;;;;5002957;28;20061;-64
2022/12/18 00:57:37;;;;;;;83.00;23.58;;;;;;;;;;5018084;28;20156;-65
2022/12/18 01:00:05;;;;;;;44.95;17.35;;;;;;;;;;5002207;28;20196;-65
2022/12/18 01:02:30;;;;;;;60.78;19.95;;;;;;;;;;5001151;28;20495;-64
2022/12/18 01:04:56;;;;;;;50.17;18.15;;;;;;;;;;5017354;28;20048;-65
2022/12/18 01:07:21;;;;;;;61.88;20.35;;;;;;;;;;5003150;28;20041;-66
2022/12/18 01:09:47;;;;;;;72.00;22.27;;;;;;;;;;5014992;28;20115;-66
2022/12/18 01:12:12;;;;;;;54.08;18.77;;;;;;;;;;4998866;28;20076;-66
2022/12/18 01:14:38;;;;;;;76.60;23.67;;;;;;;;;;5013817;28;20046;-65
2022/12/18 01:17:04;;;;;;;56.85;19.50;;;;;;;;;;4999691;28;20145;-67
2022/12/18 01:19:32;;;;;;;78.88;26.80;;;;;;;;;;4999585;28;20042;-64
2022/12/18 01:21:57;;;;;;;60.85;20.40;;;;;;;;;;5013807;28;20068;-66
2022/12/18 01:24:23;;;;;;;61.53;21.30;;;;;;;;;;5002298;28;20053;-65
2022/12/18 01:26:49;;;;;;;81.35;23.67;;;;;;;;;;5018065;28;20045;-66
2022/12/18 01:29:14;;;;;;;54.92;18.77;;;;;;;;;;5017336;28;20644;-64
2022/12/18 01:31:39;;;;;;;70.18;21.40;;;;;;;;;;5002639;28;20448;-65
2022/12/18 01:34:05;;;;;;;69.35;22.10;;;;;;;;;;4999409;28;20057;-68
2022/12/18 01:36:36;;;;;;;65.78;21.05;;;;;;;;;;5002621;28;20057;-65
2022/12/18 01:39:09;;;;;;;69.65;22.48;;;;;;;;;;5017483;28;20046;-66
2022/12/18 01:44:55;;;;;;;69.82;20.55;;;;;;;;;;5028720;28;20073;-66
2022/12/18 01:47:20;;;;;;;55.72;20.60;;;;;;;;;;5017078;28;20037;-66
2022/12/18 01:49:46;;;;;;;55.08;20.13;;;;;;;;;;5001559;28;20057;-65
2022/12/18 01:52:11;;;;;;;73.30;25.02;;;;;;;;;;5002234;28;20049;-65
2022/12/18 01:54:38;;;;;;;80.50;23.05;;;;;;;;;;4999825;28;20816;-66
2022/12/18 01:57:03;;;;;;;81.70;24.17;;;;;;;;;;5002004;28;20046;-65
2022/12/18 01:59:31;;;;;;;95.25;26.95;;;;;;;;;;5016985;28;20092;-65
2022/12/18 02:01:56;;;;;;;73.80;24.38;;;;;;;;;;5000913;28;20907;-63
2022/12/18 02:04:25;;;;;;;67.78;19.67;;;;;;;;;;5001494;28;20049;-65
2022/12/18 02:07:01;;;;;;;64.47;19.45;;;;;;;;;;5001060;28;20042;-61
2022/12/18 02:09:40;;;;;;;65.50;20.15;;;;;;;;;;5014336;28;20037;-65
2022/12/18 02:12:19;;;;;;;72.85;22.63;;;;;;;;;;4997561;28;20049;-63
2022/12/18 02:15:06;;;;;;;63.58;21.30;;;;;;;;;;5010055;28;20046;-65
2022/12/18 02:17:39;;;;;;;74.55;20.58;;;;;;;;;;5009901;28;20120;-67
2022/12/18 02:20:16;;;;;;;64.57;20.08;;;;;;;;;;5000904;28;20053;-66
2022/12/18 02:23:13;;;;;;;63.83;18.33;;;;;;;;;;5001133;28;20046;-66
2022/12/18 02:26:02;;;;;;;59.40;18.30;;;;;;;;;;5015686;28;20751;-64
2022/12/18 02:28:32;;;;;;;54.35;19.33;;;;;;;;;;5028317;28;20457;-65
2022/12/18 02:31:06;;;;;;;60.08;17.58;;;;;;;;;;5016029;28;20041;-66
2022/12/18 02:33:34;;;;;;;73.90;19.50;;;;;;;;;;5001897;28;20069;-65
2022/12/18 02:36:01;;;;;;;82.65;20.05;;;;;;;;;;5000540;28;20042;-66
2022/12/18 02:38:29;;;;;;;72.20;20.02;;;;;;;;;;5015011;28;20077;-64
2022/12/18 02:40:59;;;;;;;72.07;19.85;;;;;;;;;;5016887;28;20042;-66
2022/12/18 02:43:26;;;;;;;79.85;23.13;;;;;;;;;;5017007;28;20038;-64
2022/12/18 02:45:59;;;;;;;60.63;20.20;;;;;;;;;;5015548;28;20042;-64
2022/12/18 02:48:32;;;;;;;56.75;19.17;;;;;;;;;;5016643;28;20091;-64
2022/12/18 02:51:31;;;;;;;75.13;20.50;;;;;;;;;;5015221;28;20050;-65
2022/12/18 02:54:10;;;;;;;42.90;14.82;;;;;;;;;;5005716;28;20041;-65
2022/12/18 02:56:45;;;;;;;63.95;13.93;;;;;;;;;;5015719;28;20049;-65
2022/12/18 02:59:22;;;;;;;60.20;20.08;;;;;;;;;;5015673;28;20558;-65
2022/12/18 03:02:01;;;;;;;58.45;19.15;;;;;;;;;;5013593;28;20054;-64
2022/12/18 03:04:47;;;;;;;90.88;21.50;;;;;;;;;;5008621;28;20101;-64
2022/12/18 03:07:21;;;;;;;51.45;17.80;;;;;;;;;;5015685;28;20057;-65
2022/12/18 03:09:51;;;;;;;40.50;14.85;;;;;;;;;;5015341;28;20050;-67
2022/12/18 03:12:22;;;;;;;58.85;20.52;;;;;;;;;;5014005;28;20046;-65
2022/12/18 03:14:54;;;;;;;59.65;19.98;;;;;;;;;;5015024;28;20061;-65
2022/12/18 03:17:25;;;;;;;63.92;20.23;;;;;;;;;;5015573;28;20132;-64
2022/12/18 03:19:52;;;;;;;58.50;20.85;;;;;;;;;;5015744;28;20048;-64
2022/12/18 03:22:18;;;;;;;47.03;17.38;;;;;;;;;;5014618;28;20148;-66
2022/12/18 03:24:49;;;;;;;48.67;18.55;;;;;;;;;;5015367;28;20038;-64
2022/12/18 03:27:18;;;;;;;54.85;18.75;;;;;;;;;;5015580;28;20140;-66
2022/12/18 03:29:56;;;;;;;54.80;20.05;;;;;;;;;;5005432;28;20092;-66
2022/12/18 03:32:38;;;;;;;44.65;13.38;;;;;;;;;;5015602;28;20042;-65
2022/12/18 03:35:05;;;;;;;57.72;17.45;;;;;;;;;;5013156;28;20124;-64
2022/12/18 03:37:34;;;;;;;74.30;20.77;;;;;;;;;;5015649;28;20109;-65
2022/12/18 03:40:00;;;;;;;54.95;18.02;;;;;;;;;;5014693;28;20822;-64
2022/12/18 03:42:47;;;;;;;64.85;19.20;;;;;;;;;;5004339;28;20042;-66
2022/12/18 03:45:16;;;;;;;47.92;15.80;;;;;;;;;;5012596;28;20112;-65
2022/12/18 03:48:04;;;;;;;58.45;19.98;;;;;;;;;;4999650;28;20077;-65
2022/12/18 03:50:53;;;;;;;46.67;18.88;;;;;;;;;;5007907;28;20042;-65
2022/12/18 03:53:20;;;;;;;58.08;19.90;;;;;;;;;;5014608;28;20119;-67
2022/12/18 03:55:49;;;;;;;45.10;17.70;;;;;;;;;;5012812;28;20048;-65
2022/12/18 03:58:20;;;;;;;58.72;20.75;;;;;;;;;;5014914;28;20499;-66
2022/12/18 04:01:08;;;;;;;47.22;17.98;;;;;;;;;;5015443;28;20124;-65
2022/12/18 04:03:35;;;;;;;63.40;21.58;;;;;;;;;;4999848;28;20042;-65
2022/12/18 04:06:02;;;;;;;63.25;22.05;;;;;;;;;;5013821;28;20066;-66
2022/12/18 04:08:29;;;;;;;51.70;16.65;;;;;;;;;;4999368;28;20137;-66
2022/12/18 04:11:04;;;;;;;46.40;17.50;;;;;;;;;;5017279;28;20466;-64
2022/12/18 04:13:37;;;;;;;58.55;15.20;;;;;;;;;;5017269;28;20137;-64
2022/12/18 04:16:06;;;;;;;51.58;13.88;;;;;;;;;;5003157;28;20046;-65
2022/12/18 04:18:32;;;;;;;50.80;17.63;;;;;;;;;;5016846;28;20042;-65
2022/12/18 04:20:59;;;;;;;47.90;16.38;;;;;;;;;;5014900;28;20038;-65
2022/12/18 04:23:25;;;;;;;30.00;12.07;;;;;;;;;;5017887;28;20041;-65
2022/12/18 04:25:54;;;;;;;53.30;16.02;;;;;;;;;;5017495;28;20042;-65
2022/12/18 04:28:35;;;;;;;39.20;15.07;;;;;;;;;;5002100;28;20053;-65
2022/12/18 04:31:00;;;;;;;38.45;16.38;;;;;;;;;;5003397;28;20053;-64
2022/12/18 04:33:26;;;;;;;42.05;17.48;;;;;;;;;;5004015;28;20123;-65
2022/12/18 04:35:52;;;;;;;46.47;17.40;;;;;;;;;;5017389;28;20069;-65
2022/12/18 04:38:18;;;;;;;62.03;14.75;;;;;;;;;;5018489;28;20053;-67
2022/12/18 04:40:44;;;;;;;60.90;18.65;;;;;;;;;;5017424;28;20459;-64
2022/12/18 04:43:19;;;;;;;60.92;18.95;;;;;;;;;;5018477;28;20042;-66
2022/12/18 04:45:44;;;;;;;48.55;17.83;;;;;;;;;;5002019;28;20992;-65
2022/12/18 04:48:10;;;;;;;50.72;17.20;;;;;;;;;;5003446;28;20057;-66
2022/12/18 04:50:35;;;;;;;57.65;18.33;;;;;;;;;;5002244;28;20053;-65
2022/12/18 04:53:00;;;;;;;50.13;17.23;;;;;;;;;;5017746;28;20072;-65
2022/12/18 04:55:26;;;;;;;55.22;18.00;;;;;;;;;;5003103;28;20403;-66
2022/12/18 04:57:52;;;;;;;46.45;16.20;;;;;;;;;;5002430;28;20054;-66
2022/12/18 05:00:18;;;;;;;40.30;15.25;;;;;;;;;;5003124;28;20576;-64
2022/12/18 05:02:43;;;;;;;39.38;15.05;;;;;;;;;;5002155;28;20041;-65
2022/12/18 05:05:09;;;;;;;39.38;16.48;;;;;;;;;;5002582;28;20053;-64
2022/12/18 05:07:34;;;;;;;46.90;18.08;;;;;;;;;;5003293;28;20049;-65
2022/12/18 05:10:00;;;;;;;53.67;16.10;;;;;;;;;;5002616;28;20037;-65
2022/12/18 05:12:25;;;;;;;43.88;15.63;;;;;;;;;;5016711;28;21847;-65
2022/12/18 05:14:51;;;;;;;43.92;13.57;;;;;;;;;;5002484;28;20041;-64
2022/12/18 05:17:17;;;;;;;45.53;16.67;;;;;;;;;;5002529;28;20051;-65
2022/12/18 05:19:43;;;;;;;47.42;15.68;;;;;;;;;;5002008;28;20089;-65
2022/12/18 05:22:09;;;;;;;46.15;13.77;;;;;;;;;;5002417;28;20084;-65
2022/12/18 05:24:34;;;;;;;39.50;15.57;;;;;;;;;;5001201;28;20140;-65
2022/12/18 05:27:00;;;;;;;41.60;15.38;;;;;;;;;;5002548;28;20042;-61
2022/12/18 05:29:25;;;;;;;43.15;15.57;;;;;;;;;;5002660;28;20924;-63
2022/12/18 05:31:51;;;;;;;42.10;14.95;;;;;;;;;;5002130;28;20120;-65
2022/12/18 05:34:16;;;;;;;40.95;15.18;;;;;;;;;;4999770;28;20065;-66
2022/12/18 05:36:42;;;;;;;38.45;16.70;;;;;;;;;;5002832;28;20053;-62
2022/12/18 05:39:07;;;;;;;60.20;15.23;;;;;;;;;;5001897;28;20042;-63
2022/12/18 05:41:33;;;;;;;48.33;16.48;;;;;;;;;;5002888;28;20676;-63
2022/12/18 05:43:59;;;;;;;50.03;16.58;;;;;;;;;;5016458;28;20061;-63
2022/12/18 05:46:24;;;;;;;49.42;17.73;;;;;;;;;;5000851;28;20048;-63
2022/12/18 05:48:50;;;;;;;55.63;17.58;;;;;;;;;;5002365;28;20044;-64
2022/12/18 05:51:19;;;;;;;42.75;16.80;;;;;;;;;;5002432;28;20089;-68
2022/12/18 05:53:44;;;;;;;58.78;16.65;;;;;;;;;;5001920;28;20115;-66
2022/12/18 05:56:13;;;;;;;46.50;18.20;;;;;;;;;;5000668;28;20054;-67
2022/12/18 05:58:39;;;;;;;48.92;18.17;;;;;;;;;;5018115;28;20050;-67
2022/12/18 06:01:16;;;;;;;63.00;18.42;;;;;;;;;;5002506;28;20049;-66
2022/12/18 06:03:42;;;;;;;35.60;15.00;;;;;;;;;;5001584;28;20124;-71
2022/12/18 06:06:19;;;;;;;42.03;16.08;;;;;;;;;;5001970;28;20144;-67
2022/12/18 06:08:45;;;;;;;42.50;15.82;;;;;;;;;;5001882;28;20069;-67
2022/12/18 06:11:10;;;;;;;45.22;16.33;;;;;;;;;;5002339;28;20050;-66
2022/12/18 06:13:36;;;;;;;37.90;13.10;;;;;;;;;;5003405;28;20053;-68
2022/12/18 06:16:04;;;;;;;45.38;13.77;;;;;;;;;;4999121;28;20057;-68
2022/12/18 06:18:30;;;;;;;54.50;17.83;;;;;;;;;;4998820;28;20150;-68
2022/12/18 06:20:56;;;;;;;62.25;20.48;;;;;;;;;;5013922;28;20125;-68
2022/12/18 06:23:22;;;;;;;58.05;20.77;;;;;;;;;;4999789;28;20144;-69
2022/12/18 06:25:48;;;;;;;56.33;18.60;;;;;;;;;;4997523;28;20128;-67
2022/12/18 06:28:13;;;;;;;37.55;15.07;;;;;;;;;;4996617;28;20046;-68
2022/12/18 06:30:39;;;;;;;42.65;15.32;;;;;;;;;;5000341;28;20050;-69
2022/12/18 06:33:04;;;;;;;35.83;12.25;;;;;;;;;;4998589;28;20038;-68
2022/12/18 06:35:32;;;;;;;35.25;9.95;;;;;;;;;;4999563;28;20305;-68
2022/12/18 06:37:57;;;;;;;39.33;13.07;;;;;;;;;;5001144;28;20403;-68
2022/12/18 06:40:22;;;;;;;36.22;14.57;;;;;;;;;;4997791;28;20050;-67
2022/12/18 06:42:48;;;;;;;20.33;8.05;;;;;;;;;;5000739;28;20045;-67
2022/12/18 06:45:13;;;;;;;36.08;14.27;;;;;;;;;;5000270;28;20613;-67
2022/12/18 06:47:39;;;;;;;28.63;11.50;;;;;;;;;;5016894;28;20121;-67
2022/12/18 06:50:05;;;;;;;40.45;15.15;;;;;;;;;;5000042;28;21129;-68
2022/12/18 06:52:32;;;;;;;49.85;16.70;;;;;;;;;;5015170;28;20395;-67
2022/12/18 06:54:57;;;;;;;44.42;13.80;;;;;;;;;;5002840;28;20520;-67
2022/12/18 06:57:23;;;;;;;48.20;15.75;;;;;;;;;;5000439;28;20136;-68
2022/12/18 06:59:48;;;;;;;25.17;11.10;;;;;;;;;;4999850;28;20045;-67
2022/12/18 07:02:14;;;;;;;48.60;16.98;;;;;;;;;;4997894;28;20506;-68
2022/12/18 07:04:39;;;;;;;44.13;15.00;;;;;;;;;;4998046;28;20181;-67
2022/12/18 07:07:05;;;;;;;44.58;15.88;;;;;;;;;;4998147;28;20041;-67
2022/12/18 07:09:30;;;;;;;33.10;12.63;;;;;;;;;;4999718;28;20045;-67
2022/12/18 07:11:56;;;;;;;33.53;14.07;;;;;;;;;;4999843;28;20061;-68
2022/12/18 07:14:21;;;;;;;37.90;14.32;;;;;;;;;;4998940;28;20084;-67
2022/12/18 07:16:47;;;;;;;38.25;15.02;;;;;;;;;;5000018;28;20050;-67
2022/12/18 07:19:12;;;;;;;30.27;12.82;;;;;;;;;;4999503;28;20054;-67
2022/12/18 07:21:38;;;;;;;32.05;13.23;;;;;;;;;;4999681;28;20056;-67
2022/12/18 07:24:04;;;;;;;27.40;12.13;;;;;;;;;;4999521;28;20495;-69
2022/12/18 07:26:29;;;;;;;44.47;16.05;;;;;;;;;;4997185;28;20084;-68
2022/12/18 07:28:57;;;;;;;54.78;19.05;;;;;;;;;;4997800;28;20673;-67
2022/12/18 07:31:23;;;;;;;52.72;16.42;;;;;;;;;;4997416;28;20469;-68
2022/12/18 07:33:50;;;;;;;38.75;15.57;;;;;;;;;;4995516;28;20361;-69
2022/12/18 07:36:16;;;;;;;38.83;16.58;;;;;;;;;;4993965;28;20050;-68
2022/12/18 07:38:42;;;;;;;40.80;15.35;;;;;;;;;;4995872;28;20053;-69
2022/12/18 07:41:10;;;;;;;41.35;15.40;;;;;;;;;;5013215;28;20054;-69
2022/12/18 07:43:36;;;;;;;29.17;10.90;;;;;;;;;;4995391;28;20073;-68
2022/12/18 07:46:02;;;;;;;38.70;15.10;;;;;;;;;;4998161;28;20138;-69
2022/12/18 07:48:28;;;;;;;48.28;15.30;;;;;;;;;;4997228;28;21187;-69
2022/12/18 07:50:57;;;;;;;46.35;13.85;;;;;;;;;;5015041;28;20613;-67
2022/12/18 07:53:23;;;;;;;26.08;11.38;;;;;;;;;;4999307;28;20065;-68
2022/12/18 07:55:48;;;;;;;37.78;15.57;;;;;;;;;;4998696;28;20041;-69
2022/12/18 07:58:13;;;;;;;34.83;13.45;;;;;;;;;;4993205;28;20053;-68
2022/12/18 08:00:39;;;;;;;42.53;15.05;;;;;;;;;;4998293;28;20091;-68
2022/12/18 08:03:04;;;;;;;36.70;15.93;;;;;;;;;;4999443;28;20041;-67
2022/12/18 08:05:30;;;;;;;51.95;13.35;;;;;;;;;;4998539;28;20045;-70
2022/12/18 08:07:56;;;;;;;42.40;14.23;;;;;;;;;;4993305;28;20034;-70
2022/12/18 08:10:21;;;;;;;33.10;11.93;;;;;;;;;;4996443;28;20503;-71
2022/12/18 08:12:50;;;;;;;47.05;13.38;;;;;;;;;;4999713;28;20427;-70
2022/12/18 08:15:16;;;;;;;30.77;13.25;;;;;;;;;;4998553;28;20046;-70
2022/12/18 08:17:42;;;;;;;40.55;10.80;;;;;;;;;;4995280;28;20103;-70
2022/12/18 08:20:08;;;;;;;32.38;13.57;;;;;;;;;;4996957;28;20578;-70
2022/12/18 08:22:35;;;;;;;51.13;10.27;;;;;;;;;;4998475;28;20050;-70
2022/12/18 08:25:01;;;;;;;59.97;19.42;;;;;;;;;;4997446;28;20045;-71
2022/12/18 08:27:26;;;;;;;47.95;13.52;;;;;;;;;;4997465;28;20038;-70
2022/12/18 08:29:52;;;;;;;45.08;14.35;;;;;;;;;;4997217;28;20053;-70
2022/12/18 08:32:17;;;;;;;46.65;15.15;;;;;;;;;;4992949;28;20050;-71
2022/12/18 08:34:43;;;;;;;50.33;12.93;;;;;;;;;;4995665;28;20042;-71
2022/12/18 08:37:08;;;;;;;40.85;13.95;;;;;;;;;;4996661;28;20042;-71
2022/12/18 08:39:34;;;;;;;38.42;13.93;;;;;;;;;;4994408;28;20050;-71
2022/12/18 08:44:43;;;;;;;28.50;13.98;;;;;;;;;;4998374;28;20053;-70
2022/12/18 08:47:09;;;;;;;31.27;14.27;;;;;;;;;;4997880;28;20372;-69
2022/12/18 08:49:35;;;;;;;30.83;13.07;;;;;;;;;;4997560;28;20038;-69
2022/12/18 08:52:02;;;;;;;49.63;15.43;;;;;;;;;;4997516;28;20050;-70
2022/12/18 08:54:28;;;;;;;38.90;16.25;;;;;;;;;;4995878;28;20046;-69
2022/12/18 08:56:54;;;;;;;46.83;15.52;;;;;;;;;;5000486;28;20587;-69
2022/12/18 08:59:19;;;;;;;36.80;13.43;;;;;;;;;;5001832;28;20096;-70
2022/12/18 09:01:45;;;;;;;41.42;15.07;;;;;;;;;;5001701;28;20060;-70
2022/12/18 09:04:11;;;;;;;32.03;13.30;;;;;;;;;;5002171;28;20049;-69
2022/12/18 09:06:37;;;;;;;30.75;11.35;;;;;;;;;;5000400;28;20046;-67
2022/12/18 09:09:04;;;;;;;29.70;11.93;;;;;;;;;;5002947;28;20050;-68
2022/12/18 09:11:31;;;;;;;38.60;14.80;;;;;;;;;;5002270;28;20045;-69
2022/12/18 09:13:57;;;;;;;28.00;11.98;;;;;;;;;;5002606;28;20590;-68
2022/12/18 09:16:24;;;;;;;21.00;8.98;;;;;;;;;;5015168;28;20042;-68
2022/12/18 09:18:50;;;;;;;39.75;16.13;;;;;;;;;;5018004;28;20495;-68
2022/12/18 09:21:18;;;;;;;29.73;12.70;;;;;;;;;;5002236;28;20050;-68
2022/12/18 09:23:44;;;;;;;33.67;15.27;;;;;;;;;;5002622;28;20038;-69
2022/12/18 09:26:09;;;;;;;28.15;11.48;;;;;;;;;;5000057;28;20988;-68
2022/12/18 09:28:35;;;;;;;32.22;12.98;;;;;;;;;;5002895;28;20080;-69
2022/12/18 09:31:07;;;;;;;23.77;9.23;;;;;;;;;;5002489;28;20054;-68
2022/12/18 09:33:37;;;;;;;35.78;14.32;;;;;;;;;;5002682;28;20074;-70
2022/12/18 09:36:04;;;;;;;35.22;15.73;;;;;;;;;;5000511;28;20042;-70
2022/12/18 09:38:30;;;;;;;45.80;16.65;;;;;;;;;;5000239;28;20109;-68
2022/12/18 09:41:05;;;;;;;33.90;12.98;;;;;;;;;;5000745;28;20049;-71
2022/12/18 09:43:39;;;;;;;33.35;12.13;;;;;;;;;;5001974;28;20126;-70
2022/12/18 09:46:10;;;;;;;40.88;13.73;;;;;;;;;;5000362;28;20046;-69
2022/12/18 09:48:40;;;;;;;42.28;17.52;;;;;;;;;;5001199;28;20056;-70
2022/12/18 09:51:14;;;;;;;35.90;14.27;;;;;;;;;;5001323;28;20079;-70
2022/12/18 09:53:42;;;;;;;28.33;13.40;;;;;;;;;;5001755;28;20030;-70
2022/12/18 09:56:15;;;;;;;40.70;15.20;;;;;;;;;;5000133;28;20050;-70
2022/12/18 09:58:57;;;;;;;29.75;13.13;;;;;;;;;;5000062;28;20642;-68
2022/12/18 10:01:24;;;;;;;34.47;14.27;;;;;;;;;;5001038;28;20073;-69
2022/12/18 10:03:51;;;;;;;36.55;15.02;;;;;;;;;;5001313;28;20058;-71
2022/12/18 10:06:25;;;;;;;29.73;12.15;;;;;;;;;;5000064;28;20042;-71
2022/12/18 10:09:10;;;;;;;38.05;15.27;;;;;;;;;;4999826;28;20099;-70
2022/12/18 10:11:42;;;;;;;36.45;14.60;;;;;;;;;;4999139;28;20129;-71
2022/12/18 10:14:16;;;;;;;33.33;14.70;;;;;;;;;;5000890;28;20822;-70
2022/12/18 10:17:13;;;;;;;24.02;10.85;;;;;;;;;;5000521;28;20045;-70
2022/12/18 10:19:49;;;;;;;25.33;10.95;;;;;;;;;;5016746;28;20050;-69
2022/12/18 10:22:34;;;;;;;27.90;11.10;;;;;;;;;;5028430;28;20396;-69
2022/12/18 10:25:21;;;;;;;42.28;15.10;;;;;;;;;;5001011;28;20430;-69
2022/12/18 10:27:48;;;;;;;31.80;12.60;;;;;;;;;;5000622;28;20041;-69
2022/12/18 10:30:17;;;;;;;32.28;14.30;;;;;;;;;;5000462;28;20045;-69
2022/12/18 10:32:42;;;;;;;33.67;13.38;;;;;;;;;;4999329;28;20049;-68
2022/12/18 10:35:25;;;;;;;38.13;15.52;;;;;;;;;;5000284;28;20455;-68
2022/12/18 10:38:08;;;;;;;;;;;;;;;;;;5000707;28;20104;-68
2022/12/18 10:40:56;;;;;;;26.00;11.77;;;;;;;;;;4999689;28;19925;-68
2022/12/18 10:43:28;;;;;;;31.08;11.88;;;;;;;;;;5000789;28;20049;-68
2022/12/18 10:46:09;;;;;;;;;;;;;;;;;;5000527;28;20096;-68
2022/12/18 10:48:46;;;;;;;14.45;7.05;;;;;;;;;;5003413;28;19971;-69
2022/12/18 10:51:33;;;;;;;20.67;9.95;;;;;;;;;;5018599;28;20108;-69
2022/12/18 10:54:17;;;;;;;22.92;10.18;;;;;;;;;;5007879;28;20054;-69
2022/12/18 10:56:43;;;;;;;22.02;10.10;;;;;;;;;;5001430;28;20141;-68
2022/12/18 10:59:11;;;;;;;24.45;10.30;;;;;;;;;;5001237;28;20132;-68
2022/12/18 11:01:51;;;;;;;24.80;9.95;;;;;;;;;;4995728;28;20096;-68
2022/12/18 11:04:26;;;;;;;22.27;11.13;;;;;;;;;;5028293;28;20473;-68
2022/12/18 11:07:01;;;;;;;29.55;12.48;;;;;;;;;;4999796;28;20960;-68
2022/12/18 11:09:32;;;;;;;31.00;11.85;;;;;;;;;;4999082;28;20126;-68
2022/12/18 11:12:01;;;;;;;28.17;12.73;;;;;;;;;;4999266;28;20504;-68
2022/12/18 11:14:42;;;;;;;17.35;8.02;;;;;;;;;;5000584;28;20103;-69
2022/12/18 11:17:26;;;;;;;26.60;12.50;;;;;;;;;;4997593;28;20517;-68
2022/12/18 11:19:54;;;;;;;31.50;14.07;;;;;;;;;;4999874;28;20050;-68
2022/12/18 11:22:21;;;;;;;31.60;14.52;;;;;;;;;;4999116;28;20053;-68
2022/12/18 11:24:59;;;;;;;33.58;13.52;;;;;;;;;;4999816;28;20450;-68
2022/12/18 11:27:25;;;;;;;33.55;13.57;;;;;;;;;;5011714;28;20384;-69
2022/12/18 11:29:54;;;;;;;32.15;12.50;;;;;;;;;;4994765;28;20069;-69
2022/12/18 11:32:35;;;;;;;30.40;13.60;;;;;;;;;;4995534;28;20049;-68
2022/12/18 11:35:34;;;;;;;31.08;12.73;;;;;;;;;;4995963;28;20077;-68
2022/12/18 11:38:10;;;;;;;25.08;10.75;;;;;;;;;;4989178;28;20756;-68
2022/12/18 11:40:39;;;;;;;30.90;11.98;;;;;;;;;;4994348;28;20048;-69
2022/12/18 11:43:43;;;;;;;24.95;9.73;;;;;;;;;;4994753;28;20057;-69
2022/12/18 11:46:13;;;;;;;28.80;13.18;;;;;;;;;;4992962;28;20057;-68
2022/12/18 11:48:46;;;;;;;35.70;15.95;;;;;;;;;;4993618;28;20096;-67
2022/12/18 11:51:22;;;;;;;36.38;15.07;;;;;;;;;;5013760;28;20057;-67
2022/12/18 11:53:48;;;;;;;34.90;16.50;;;;;;;;;;5005000;28;20774;-66
2022/12/18 11:56:34;;;;;;;36.05;13.57;;;;;;;;;;5014059;28;20041;-67
2022/12/18 11:59:22;;;;;;;29.63;13.35;;;;;;;;;;5000778;28;20127;-67
2022/12/18 12:01:55;;;;;;;33.45;14.77;;;;;;;;;;4999281;28;20117;-69
2022/12/18 12:04:35;;;;;;;36.35;15.70;;;;;;;;;;5000189;28;20685;-68
2022/12/18 12:07:13;;;;;;;40.03;18.15;;;;;;;;;;4995582;28;20491;-68
2022/12/18 12:10:04;;;;;;;21.75;10.73;;;;;;;;;;4995192;28;20048;-68
2022/12/18 12:12:49;;;;;;;27.87;11.07;;;;;;;;;;5002052;28;20050;-68
2022/12/18 12:15:25;;;;;;;25.90;10.18;;;;;;;;;;4994077;28;20089;-68
2022/12/18 12:18:08;;;;;;;29.35;10.50;;;;;;;;;;4993840;28;20042;-68
2022/12/18 12:20:52;;;;;;;22.50;10.65;;;;;;;;;;4993792;28;20105;-68
2022/12/18 12:23:26;;;;;;;48.25;16.10;;;;;;;;;;4993049;28;20049;-67
2022/12/18 12:26:07;;;;;;;44.40;15.57;;;;;;;;;;4992593;28;20038;-67
2022/12/18 12:28:42;;;;;;;30.27;13.80;;;;;;;;;;4994688;28;20160;-67
2022/12/18 12:31:23;;;;;;;32.05;14.63;;;;;;;;;;4998453;28;20053;-68
2022/12/18 12:34:07;;;;;;;30.13;13.32;;;;;;;;;;5006308;28;20053;-68
2022/12/18 12:37:17;;;;;;;31.23;13.68;;;;;;;;;;5025980;28;20074;-67
2022/12/18 12:39:46;;;;;;;31.13;13.88;;;;;;;;;;4986926;28;20105;-67
2022/12/18 12:45:23;;;;;;;45.35;16.33;;;;;;;;;;4994304;28;20049;-68
2022/12/18 12:47:50;;;;;;;36.10;15.27;;;;;;;;;;4999684;28;20465;-68
2022/12/18 12:50:19;;;;;;;34.30;14.15;;;;;;;;;;5002060;28;20064;-67
2022/12/18 12:52:48;;;;;;;35.17;14.35;;;;;;;;;;5000569;28;20557;-69
2022/12/18 12:55:23;;;;;;;21.27;9.65;;;;;;;;;;4999330;28;20046;-68
2022/12/18 12:58:07;;;;;;;23.75;10.40;;;;;;;;;;4998400;28;20045;-68
2022/12/18 13:00:54;;;;;;;32.83;14.50;;;;;;;;;;4999302;28;20050;-68
2022/12/18 13:03:31;;;;;;;18.50;10.05;;;;;;;;;;4998281;28;20045;-69
2022/12/18 13:06:03;;;;;;;37.83;15.68;;;;;;;;;;5012193;28;20045;-68
2022/12/18 13:08:30;;;;;;;36.70;15.15;;;;;;;;;;5006951;28;20045;-68
2022/12/18 13:13:54;;;;;;;41.42;18.33;;;;;;;;;;4999177;28;20057;-69
2022/12/18 13:16:25;;;;;;;32.88;14.77;;;;;;;;;;5026714;28;20046;-67
2022/12/18 13:18:59;;;;;;;43.42;16.83;;;;;;;;;;4998024;28;20527;-67
2022/12/18 13:21:30;;;;;;;27.25;11.23;;;;;;;;;;4999938;28;20060;-66
2022/12/18 13:23:57;;;;;;;28.38;11.68;;;;;;;;;;5015978;28;20172;-68
2022/12/18 13:26:22;;;;;;;33.95;15.63;;;;;;;;;;4999793;28;20046;-68
2022/12/18 13:28:48;;;;;;;41.92;16.75;;;;;;;;;;4999737;28;20154;-66
2022/12/18 13:31:38;;;;;;;37.85;15.43;;;;;;;;;;4997261;28;20058;-66
2022/12/18 13:34:20;;;;;;;33.20;12.77;;;;;;;;;;5000895;28;20046;-68
2022/12/18 13:36:47;;;;;;;41.88;15.40;;;;;;;;;;4997077;28;20138;-69
2022/12/18 13:39:18;;;;;;;46.00;20.05;;;;;;;;;;4997756;28;20060;-65
2022/12/18 13:41:50;;;;;;;49.80;19.60;;;;;;;;;;4997730;28;20072;-65
2022/12/18 13:44:39;;;;;;;42.78;19.88;;;;;;;;;;5013516;28;20060;-66
2022/12/18 13:47:28;;;;;;;41.15;15.23;;;;;;;;;;4998642;28;20127;-66
2022/12/18 13:49:54;;;;;;;32.15;14.88;;;;;;;;;;5014572;28;20046;-66
2022/12/18 13:52:36;;;;;;;42.53;17.25;;;;;;;;;;5003136;28;20069;-66
2022/12/18 13:55:04;;;;;;;;;;;;;;;;;;5000491;28;20381;-67
2022/12/18 13:57:32;;;;;;;41.03;14.18;;;;;;;;;;5000439;28;20048;-66
2022/12/18 14:00:14;;;;;;;26.13;12.30;;;;;;;;;;4997454;28;20141;-66
2022/12/18 14:02:45;;;;;;;27.38;12.00;;;;;;;;;;5016589;28;20050;-67
2022/12/18 14:05:23;;;;;;;30.77;14.30;;;;;;;;;;4999584;28;20515;-66
2022/12/18 14:07:48;;;;;;;37.53;14.45;;;;;;;;;;4999824;28;20069;-66
2022/12/18 14:10:16;;;;;;;33.67;15.07;;;;;;;;;;5000301;28;20057;-67
2022/12/18 14:12:58;;;;;;;30.75;13.80;;;;;;;;;;5014508;28;20145;-66
2022/12/18 14:15:33;;;;;;;35.00;15.18;;;;;;;;;;4999324;28;20050;-67
2022/12/18 14:18:14;;;;;;;33.20;14.48;;;;;;;;;;4999424;28;20041;-67
2022/12/18 14:20:42;;;;;;;44.35;16.00;;;;;;;;;;4998060;28;20735;-67
2022/12/18 14:23:25;;;;;;;35.47;14.95;;;;;;;;;;4999070;28;20064;-67
2022/12/18 14:25:50;;;;;;;39.72;16.73;;;;;;;;;;4998891;28;20084;-69
2022/12/18 14:28:17;;;;;;;28.15;11.57;;;;;;;;;;4999245;28;20151;-69
2022/12/18 14:30:45;;;;;;;30.00;12.45;;;;;;;;;;5002025;28;20045;-68
2022/12/18 14:33:17;;;;;;;32.83;13.10;;;;;;;;;;5001374;28;20103;-70
2022/12/18 14:35:57;;;;;;;29.25;12.38;;;;;;;;;;5000895;28;20092;-70
2022/12/18 14:38:30;;;;;;;35.70;15.50;;;;;;;;;;5031026;28;20049;-70
2022/12/18 14:41:09;;;;;;;32.75;13.55;;;;;;;;;;5002893;28;20072;-69
2022/12/18 14:43:37;;;;;;;33.17;14.50;;;;;;;;;;5001554;28;20291;-71
2022/12/18 14:46:27;;;;;;;37.33;14.50;;;;;;;;;;4999856;28;20057;-69
2022/12/18 14:48:53;;;;;;;33.55;13.95;;;;;;;;;;5001762;28;20050;-69
2022/12/18 14:51:21;;;;;;;28.15;12.63;;;;;;;;;;5016690;28;20049;-69
2022/12/18 14:53:48;;;;;;;24.42;10.40;;;;;;;;;;4999465;28;20045;-67